createdAt,value
2019-01-10T00:02:40.932Z,27.83
2019-01-10T00:05:28.615Z,27.23
2019-01-10T00:08:15.778Z,27.97
2019-01-10T00:11:02.051Z,27.77
2019-01-10T00:13:49.055Z,28.33
2019-01-10T00:16:35.578Z,27.80
2019-01-10T00:19:22.692Z,28.30
2019-01-10T00:22:09.595Z,27.17
2019-01-10T00:24:55.775Z,26.67
2019-01-10T00:27:42.819Z,27.67
2019-01-10T00:30:29.106Z,26.97
2019-01-10T00:33:15.892Z,26.63
2019-01-10T00:36:02.844Z,26.80
2019-01-10T00:38:49.919Z,28.00
2019-01-10T00:41:36.835Z,26.63
2019-01-10T00:44:23.668Z,26.57
2019-01-10T00:47:10.642Z,26.63
2019-01-10T00:49:57.019Z,27.40
2019-01-10T00:52:43.952Z,26.73
2019-01-10T00:55:30.214Z,27.40
2019-01-10T00:58:17.287Z,28.00
2019-01-10T01:01:04.000Z,27.97
2019-01-10T01:03:50.303Z,27.53
2019-01-10T01:06:36.560Z,27.00
2019-01-10T01:09:22.855Z,27.47
2019-01-10T01:12:09.859Z,26.80
2019-01-10T01:14:56.814Z,26.67
2019-01-10T01:17:43.391Z,27.57
2019-01-10T01:20:30.466Z,28.47
2019-01-10T01:23:17.524Z,27.53
2019-01-10T01:26:04.098Z,27.97
2019-01-10T01:28:50.406Z,28.80
2019-01-10T01:31:36.778Z,27.70
2019-01-10T01:34:23.108Z,27.90
2019-01-10T01:37:09.438Z,28.90
2019-01-10T01:39:56.491Z,27.90
2019-01-10T01:42:42.820Z,28.53
2019-01-10T01:45:29.390Z,27.57
2019-01-10T01:48:16.307Z,26.97
2019-01-10T01:51:03.450Z,28.70
2019-01-10T01:53:50.095Z,27.33
2019-01-10T01:56:36.666Z,28.13
2019-01-10T01:59:23.609Z,29.13
2019-01-10T02:02:10.334Z,27.67
2019-01-10T02:04:57.491Z,27.87
2019-01-10T02:07:43.882Z,27.90
2019-01-10T02:10:30.734Z,28.83
2019-01-10T02:13:17.648Z,28.80
2019-01-10T02:16:04.351Z,28.63
2019-01-10T02:18:51.496Z,27.80
2019-01-10T02:21:38.416Z,27.87
2019-01-10T02:24:25.032Z,29.23
2019-01-10T02:27:11.968Z,29.33
2019-01-10T02:29:58.987Z,28.73
2019-01-10T02:32:46.014Z,28.40
2019-01-10T02:35:33.220Z,28.80
2019-01-10T02:38:19.735Z,29.50
2019-01-10T02:41:06.408Z,28.37
2019-01-10T02:43:53.527Z,28.47
2019-01-10T02:46:40.394Z,29.53
2019-01-10T02:49:27.240Z,29.60
2019-01-10T02:52:13.739Z,29.20
2019-01-10T02:55:00.724Z,29.57
2019-01-10T02:57:47.876Z,29.93
2019-01-10T03:00:34.367Z,29.07
2019-01-10T03:03:20.856Z,29.13
2019-01-10T03:06:08.088Z,28.67
2019-01-10T03:08:54.858Z,28.27
2019-01-10T03:11:41.599Z,28.90
2019-01-10T03:14:28.600Z,28.27
2019-01-10T03:17:14.894Z,29.50
2019-01-10T03:20:02.016Z,29.37
2019-01-10T03:22:48.868Z,29.50
2019-01-10T03:25:35.522Z,27.90
2019-01-10T03:28:23.149Z,29.03
2019-01-10T03:31:10.181Z,28.00
2019-01-10T03:33:56.480Z,29.73
2019-01-10T03:36:43.473Z,28.60
2019-01-10T03:39:29.768Z,28.70
2019-01-10T03:42:16.409Z,28.73
2019-01-10T03:45:03.208Z,29.30
2019-01-10T03:47:50.015Z,29.13
2019-01-10T03:50:37.952Z,29.43
2019-01-10T03:53:23.065Z,30.00
2019-01-10T03:56:09.981Z,29.10
2019-01-10T03:58:57.006Z,28.87
2019-01-10T04:01:43.306Z,30.00
2019-01-10T04:04:29.756Z,28.63
2019-01-10T04:07:16.894Z,28.40
2019-01-10T04:10:03.929Z,29.30
2019-01-10T04:12:50.965Z,29.80
2019-01-10T04:15:38.047Z,29.00
2019-01-10T04:18:25.296Z,29.93
2019-01-10T04:21:17.467Z,29.03
2019-01-10T04:24:00.928Z,29.17
2019-01-10T04:26:47.900Z,29.53
2019-01-10T04:29:34.395Z,29.83
2019-01-10T04:32:21.504Z,28.57
2019-01-10T04:35:07.800Z,28.97
2019-01-10T04:37:54.958Z,29.03
2019-01-10T04:40:41.849Z,28.90
2019-01-10T04:43:28.903Z,29.93
2019-01-10T04:46:15.565Z,29.13
2019-01-10T04:49:02.748Z,29.90
2019-01-10T04:51:49.445Z,29.90
2019-01-10T04:54:38.417Z,30.27
2019-01-10T04:57:24.480Z,29.67
2019-01-10T05:00:10.778Z,30.30
2019-01-10T05:02:57.892Z,29.40
2019-01-10T05:05:44.609Z,28.43
2019-01-10T05:08:31.498Z,29.73
2019-01-10T05:11:18.026Z,28.43
2019-01-10T05:14:04.727Z,29.23
2019-01-10T05:16:51.339Z,27.83
2019-01-10T05:19:38.418Z,29.20
2019-01-10T05:22:25.076Z,29.10
2019-01-10T05:25:12.041Z,28.97
2019-01-10T05:27:59.136Z,29.20
2019-01-10T05:30:45.753Z,30.37
2019-01-10T05:33:32.731Z,28.73
2019-01-10T05:36:19.641Z,27.53
2019-01-10T05:39:06.343Z,29.03
2019-01-10T05:41:52.612Z,29.83
2019-01-10T05:44:39.621Z,29.07
2019-01-10T05:47:26.364Z,28.63
2019-01-10T05:50:12.865Z,29.57
2019-01-10T05:52:59.163Z,30.60
2019-01-10T05:55:45.959Z,30.60
2019-01-10T05:58:32.558Z,29.27
2019-01-10T06:01:19.451Z,30.60
2019-01-10T06:04:06.335Z,30.83
2019-01-10T06:06:53.202Z,29.77
2019-01-10T06:09:39.760Z,30.17
2019-01-10T06:12:26.068Z,30.27
2019-01-10T06:15:13.044Z,29.83
2019-01-10T06:18:00.202Z,31.03
2019-01-10T06:20:47.115Z,30.23
2019-01-10T06:23:34.160Z,30.70
2019-01-10T06:26:20.961Z,31.07
2019-01-10T06:29:07.395Z,31.87
2019-01-10T06:31:54.215Z,30.23
2019-01-10T06:34:40.813Z,30.60
2019-01-10T06:37:27.664Z,30.67
2019-01-10T06:40:14.287Z,30.50
2019-01-10T06:43:01.274Z,29.30
2019-01-10T06:45:47.939Z,30.83
2019-01-10T06:48:35.043Z,28.73
2019-01-10T06:51:22.064Z,31.10
2019-01-10T06:54:08.842Z,30.73
2019-01-10T06:56:55.667Z,29.27
2019-01-10T06:59:42.747Z,29.47
2019-01-10T07:02:29.796Z,29.23
2019-01-10T07:05:16.775Z,28.33
2019-01-10T07:08:03.323Z,28.60
2019-01-10T07:10:49.955Z,29.47
2019-01-10T07:13:36.803Z,28.20
2019-01-10T07:16:23.417Z,28.97
2019-01-10T07:19:10.520Z,28.87
2019-01-10T07:21:57.131Z,28.40
2019-01-10T07:24:45.871Z,30.00
2019-01-10T07:27:20.709Z,29.70
2019-01-10T07:30:36.253Z,29.27
2019-01-10T07:33:41.653Z,29.17
2019-01-10T07:36:28.414Z,29.00
2019-01-10T07:42:08.820Z,30.07
2019-01-10T07:48:28.564Z,29.53
2019-01-10T07:51:15.109Z,30.70
2019-01-10T07:54:01.389Z,30.07
2019-01-10T07:56:48.313Z,29.90
2019-01-10T07:59:35.225Z,29.87
2019-01-10T08:02:22.006Z,31.27
2019-01-10T08:05:08.947Z,32.13
2019-01-10T08:07:55.951Z,32.60
2019-01-10T08:10:43.084Z,32.23
2019-01-10T08:13:30.164Z,32.63
2019-01-10T08:16:16.763Z,33.87
2019-01-10T08:19:03.764Z,32.43
2019-01-10T08:21:50.665Z,32.93
2019-01-10T08:24:36.975Z,31.97
2019-01-10T08:27:23.518Z,34.03
2019-01-10T08:30:10.339Z,34.23
2019-01-10T08:32:57.322Z,32.63
2019-01-10T08:35:44.403Z,32.47
2019-01-10T08:38:31.459Z,32.23
2019-01-10T08:41:18.200Z,34.20
2019-01-10T08:44:04.503Z,32.57
2019-01-10T08:46:51.444Z,32.53
